PST,Max TemperatureF,Mean TemperatureF,Min TemperatureF,Max Dew PointF,MeanDew PointF,Min DewpointF,Max Humidity, Mean Humidity, Min Humidity, Max Sea Level PressureIn, Mean Sea Level PressureIn, Min Sea Level PressureIn, Max VisibilityMiles, Mean VisibilityMiles, Min VisibilityMiles, Max Wind SpeedMPH, Mean Wind SpeedMPH, Max Gust SpeedMPH,PrecipitationIn, CloudCover, Events, WindDirDegrees
2012-12-1,52,49,46,46,42,36,93,80,59,29.62,29.47,29.29,10,9,4,33,16,45,0.29,7,Rain,168
2012-12-2,46,45,44,43,42,39,93,86,76,29.77,29.44,29.17,10,9,2,32,14,39,0.46,7,Rain,182
2012-12-3,46,45,44,43,42,39,93,86,76,29.99,29.88,29.65,10,8,2,24,14,34,0.32,8,Rain,170
2012-12-4,52,48,45,48,43,38,93,81,63,29.80,29.66,29.52,10,8,2,28,16,37,0.43,6,Rain,176
2012-12-5,46,42,39,37,36,34,82,75,63,30.19,30.12,29.83,10,10,10,21,14,30,0.00,4,,184
2012-12-6,44,42,39,40,38,36,93,84,76,30.15,30.09,30.04,10,10,7,18,12,25,0.02,7,Rain,187
2012-12-7,44,42,39,40,36,27,89,76,53,30.14,30.02,29.94,10,10,10,18,12,29,0.03,7,Rain,244
2012-12-8,41,38,35,36,34,32,93,86,76,30.35,30.24,30.14,10,9,2,9,5,20,0.10,6,Rain,144
2012-12-9,41,39,37,40,37,33,100,91,83,30.37,30.33,30.27,10,4,0,10,4,,0.14,8,Fog-Rain-Hail,119
2012-12-10,43,41,39,41,39,37,100,92,87,30.42,30.34,30.09,10,4,0,12,3,,0.00,8,Fog,142
2012-12-11,45,44,42,41,40,37,93,87,81,30.03,29.73,29.55,10,9,3,18,12,26,0.13,8,Rain,177
2012-12-12,43,42,41,41,39,37,93,89,81,30.03,29.82,29.60,10,8,4,7,4,,0.27,8,Rain,187
2012-12-13,42,40,39,38,36,35,93,86,79,30.05,29.92,29.80,10,9,5,13,5,,0.13,8,Rain,151
2012-12-14,42,38,35,37,35,30,93,86,70,29.94,29.86,29.77,10,9,4,13,7,16,0.26,6,Rain,35
2012-12-15,39,36,34,36,33,26,93,84,65,29.90,29.65,29.54,10,8,2,23,9,31,0.16,7,Rain-Snow,168
2012-12-16,43,40,37,39,36,34,93,88,82,29.73,29.42,28.98,10,8,4,16,11,25,0.74,8,Rain,156
2012-12-17,45,40,35,43,35,30,93,84,75,29.87,29.47,28.94,10,8,2,20,10,28,0.50,7,Rain,173
2012-12-18,37,35,33,32,31,30,93,84,75,29.97,29.92,29.85,10,8,2,16,11,21,0.06,7,Rain-Snow,182
2012-12-19,41,37,33,38,33,27,93,88,67,29.93,29.71,29.58,10,4,0,20,11,29,1.37,8,Fog-Rain-Snow,146
2012-12-20,43,40,36,39,37,32,93,87,79,29.83,29.63,29.51,10,8,4,24,12,31,0.58,7,Rain,174
2012-12-21,45,39,33,36,32,28,92,75,65,29.82,29.74,29.68,10,9,4,15,5,25,0.04,5,Rain,135
2012-12-22,45,42,39,39,35,32,89,77,65,29.74,29.61,29.51,10,10,3,25,10,37,0.11,7,Rain,159
2012-12-23,45,41,37,38,35,33,93,82,63,29.81,29.71,29.63,10,8,4,10,4,,0.35,8,Rain,174
2012-12-24,42,40,37,38,37,34,96,90,76,30.16,30.06,29.82,10,8,2,8,4,,0.06,7,Rain,173
2012-12-25,41,39,37,36,33,30,93,80,68,30.03,29.75,29.67,10,8,2,13,7,20,0.40,7,Rain,131
2012-12-26,43,41,39,40,36,33,92,85,77,29.91,29.77,29.69,10,9,2,17,7,24,0.27,8,Rain,153
2012-12-27,42,40,39,40,38,36,93,88,81,30.17,30.07,29.90,10,8,1,10,5,,0.16,8,Rain,194
2012-12-28,46,42,37,36,35,33,87,79,66,30.17,30.14,30.11,10,10,10,8,3,,0.00,6,Rain,126
2012-12-29,39,38,37,36,35,31,93,87,73,30.24,30.18,30.14,10,7,2,8,2,,0.15,8,Rain,131
2012-12-30,37,34,32,36,33,30,100,93,82,30.32,30.27,30.22,10,2,0,7,2,,0.00,7,Fog,109
2012-12-31,39,36,30,34,30,28,93,85,67,30.46,30.34,30.25,10,9,3,7,3,,0.00,4,,54